createdAt,value
2022-08-24T00:01:21.639Z,9.32
2022-08-24T00:03:48.541Z,11.32
2022-08-24T00:06:22.689Z,14.88
2022-08-24T00:08:51.160Z,14.13
2022-08-24T00:11:18.709Z,12.95
2022-08-24T00:13:45.431Z,14.27
2022-08-24T00:16:12.421Z,10.90
2022-08-24T00:18:39.385Z,13.10
2022-08-24T00:21:07.967Z,12.90
2022-08-24T00:23:35.932Z,17.27
2022-08-24T00:26:03.199Z,12.55
2022-08-24T00:28:30.220Z,12.48
2022-08-24T00:30:56.781Z,10.60
2022-08-24T00:33:23.171Z,12.68
2022-08-24T00:35:50.091Z,13.57
2022-08-24T00:38:16.869Z,9.43
2022-08-24T00:40:49.056Z,14.43
2022-08-24T00:43:20.368Z,13.18
2022-08-24T00:46:07.627Z,15.45
2022-08-24T00:48:39.493Z,15.93
2022-08-24T00:51:17.191Z,17.35
2022-08-24T00:53:48.989Z,19.55
2022-08-24T00:56:23.569Z,15.10
2022-08-24T00:59:00.797Z,15.13
2022-08-24T01:01:28.842Z,15.70
2022-08-24T01:03:58.132Z,13.68
2022-08-24T01:06:24.952Z,11.40
2022-08-24T01:08:56.479Z,14.65
2022-08-24T01:11:27.432Z,17.13
2022-08-24T01:13:57.831Z,14.43
2022-08-24T01:16:47.595Z,10.75
2022-08-24T01:19:36.230Z,12.07
2022-08-24T01:22:20.858Z,10.73
2022-08-24T01:24:47.839Z,12.43
2022-08-24T01:27:15.535Z,13.43
2022-08-24T01:29:45.783Z,11.27
2022-08-24T01:32:14.043Z,15.55
2022-08-24T01:34:40.437Z,12.75
2022-08-24T01:37:09.665Z,12.60
2022-08-24T01:39:47.972Z,12.48
2022-08-24T01:42:15.180Z,11.90
2022-08-24T01:44:45.214Z,14.18
2022-08-24T01:47:13.837Z,16.13
2022-08-24T01:49:45.706Z,13.95
2022-08-24T01:52:17.370Z,13.93
2022-08-24T01:54:43.866Z,12.98
2022-08-24T01:57:11.370Z,12.15
2022-08-24T01:59:43.125Z,15.13
2022-08-24T02:02:14.895Z,13.77
2022-08-24T02:04:41.914Z,11.98
2022-08-24T02:07:11.058Z,14.10
2022-08-24T02:09:38.675Z,15.55
2022-08-24T02:12:05.854Z,15.93
2022-08-24T02:14:32.948Z,16.25
2022-08-24T02:17:00.930Z,14.43
2022-08-24T02:19:27.315Z,16.08
2022-08-24T02:21:53.801Z,18.45
2022-08-24T02:24:20.331Z,14.52
2022-08-24T02:26:46.752Z,17.60
2022-08-24T02:29:13.179Z,18.48
2022-08-24T02:31:39.566Z,18.45
2022-08-24T02:34:06.163Z,15.45
2022-08-24T02:36:32.620Z,15.15
2022-08-24T02:38:59.439Z,16.88
2022-08-24T02:41:26.359Z,17.60
2022-08-24T02:43:54.606Z,15.43
2022-08-24T02:46:25.159Z,14.65
2022-08-24T02:48:56.521Z,15.30
2022-08-24T02:51:42.259Z,15.50
2022-08-24T02:54:12.277Z,17.33
2022-08-24T02:56:38.645Z,16.15
2022-08-24T02:59:05.101Z,19.70
2022-08-24T03:01:31.543Z,19.85
2022-08-24T03:03:58.062Z,17.52
2022-08-24T03:06:24.714Z,13.93
2022-08-24T03:08:56.086Z,17.13
2022-08-24T03:11:27.643Z,17.00
2022-08-24T03:16:21.375Z,13.68
2022-08-24T03:18:47.801Z,16.25
2022-08-24T03:21:15.163Z,14.23
2022-08-24T03:23:41.650Z,18.77
2022-08-24T03:26:08.295Z,15.95
2022-08-24T03:28:34.989Z,16.05
2022-08-24T03:31:01.624Z,14.60
2022-08-24T03:33:28.070Z,16.90
2022-08-24T03:35:55.240Z,13.40
2022-08-24T03:38:21.730Z,15.70
2022-08-24T03:40:48.869Z,15.52
2022-08-24T03:43:35.310Z,16.98
2022-08-24T03:46:02.913Z,16.30
2022-08-24T03:48:30.741Z,15.52
2022-08-24T03:50:57.254Z,17.80
2022-08-24T03:53:23.808Z,16.35
2022-08-24T03:55:50.738Z,17.55
2022-08-24T03:58:17.512Z,18.33
2022-08-24T04:00:44.427Z,16.77
2022-08-24T04:03:12.234Z,18.58
2022-08-24T04:05:40.248Z,15.57
2022-08-24T04:08:06.772Z,15.23
2022-08-24T04:10:33.930Z,20.20
2022-08-24T04:13:01.535Z,16.70
2022-08-24T04:15:29.887Z,17.65
2022-08-24T04:17:56.282Z,21.10
2022-08-24T04:20:24.019Z,15.82
2022-08-24T04:22:51.426Z,15.98
2022-08-24T04:25:24.744Z,17.52
2022-08-24T04:27:51.530Z,18.58
2022-08-24T04:32:44.373Z,18.60
2022-08-24T04:35:10.808Z,14.82
2022-08-24T04:37:41.009Z,20.55
2022-08-24T04:40:10.919Z,21.65
2022-08-24T04:42:37.555Z,19.63
2022-08-24T06:53:20.864Z,24.00
2022-08-24T20:02:48.669Z,2.03
2022-08-24T20:07:43.688Z,5.75
2022-08-24T20:10:12.975Z,10.00
2022-08-24T20:15:06.654Z,9.53
2022-08-24T20:17:34.355Z,3.85
2022-08-24T20:20:02.161Z,2.78
2022-08-24T20:22:29.133Z,4.60
2022-08-24T20:24:56.037Z,3.95
2022-08-24T20:27:27.680Z,4.00
2022-08-24T20:29:55.227Z,4.75
2022-08-24T20:32:24.191Z,10.87
2022-08-24T22:06:18.178Z,7.00
2022-08-24T23:17:20.789Z,3.50
2022-08-24T23:20:00.394Z,3.35
2022-08-24T23:22:33.685Z,5.20
2022-08-24T23:25:01.277Z,4.80
2022-08-24T23:27:32.914Z,3.40
2022-08-24T23:30:07.138Z,6.90
2022-08-24T23:32:33.688Z,6.90
2022-08-24T23:37:26.541Z,4.47
2022-08-24T23:39:53.050Z,3.80
2022-08-24T23:44:46.039Z,6.00
2022-08-24T23:47:12.969Z,3.27
2022-08-24T23:49:39.692Z,4.15
2022-08-24T23:57:09.512Z,4.75
